createdAt,value
2022-12-01T00:00:42.752Z,11.98
2022-12-01T00:01:44.368Z,11.97
2022-12-01T00:02:46.124Z,11.97
2022-12-01T00:03:47.708Z,11.96
2022-12-01T00:04:49.177Z,11.95
2022-12-01T00:06:00.407Z,11.95
2022-12-01T00:07:01.900Z,11.95
2022-12-01T00:08:05.080Z,11.94
2022-12-01T00:09:25.372Z,11.92
2022-12-01T00:10:26.875Z,11.87
2022-12-01T00:11:28.465Z,11.87
2022-12-01T00:12:30.003Z,11.88
2022-12-01T00:13:31.736Z,11.89
2022-12-01T00:14:33.226Z,11.89
2022-12-01T00:15:35.306Z,11.88
2022-12-01T00:16:36.898Z,11.88
2022-12-01T00:17:38.562Z,11.88
2022-12-01T00:18:40.051Z,11.88
2022-12-01T00:19:41.505Z,11.87
2022-12-01T00:20:43.067Z,11.86
2022-12-01T00:21:45.400Z,11.86
2022-12-01T00:22:47.162Z,11.85
2022-12-01T00:23:50.070Z,11.84
2022-12-01T00:24:51.534Z,11.85
2022-12-01T00:25:52.976Z,11.85
2022-12-01T00:26:54.477Z,11.84
2022-12-01T00:27:56.000Z,11.82
2022-12-01T00:28:57.883Z,11.82
2022-12-01T00:29:59.456Z,11.82
2022-12-01T00:31:00.930Z,11.82
2022-12-01T00:32:02.515Z,11.82
2022-12-01T00:33:04.066Z,11.82
2022-12-01T00:34:10.803Z,11.81
2022-12-01T00:35:13.002Z,11.82
2022-12-01T00:36:14.485Z,11.82
2022-12-01T00:37:16.120Z,11.81
2022-12-01T00:38:17.576Z,11.81
2022-12-01T00:39:19.419Z,11.82
2022-12-01T00:40:20.896Z,11.82
2022-12-01T00:41:22.572Z,11.82
2022-12-01T00:42:24.447Z,11.83
2022-12-01T00:43:25.956Z,11.83
2022-12-01T00:44:27.412Z,11.81
2022-12-01T00:45:28.926Z,11.81
2022-12-01T00:46:30.499Z,11.82
2022-12-01T00:47:32.044Z,11.82
2022-12-01T00:48:33.585Z,11.80
2022-12-01T00:49:35.176Z,11.79
2022-12-01T00:50:36.635Z,11.79
2022-12-01T00:51:38.103Z,11.79
2022-12-01T00:52:39.675Z,11.69
2022-12-01T00:53:41.151Z,11.81
2022-12-01T00:54:42.711Z,11.80
2022-12-01T00:55:44.293Z,11.81
2022-12-01T00:56:45.766Z,11.81
2022-12-01T00:57:47.236Z,11.82
2022-12-01T00:58:48.773Z,11.83
2022-12-01T00:59:50.575Z,11.83
2022-12-01T01:00:59.089Z,11.84
2022-12-01T01:02:00.737Z,11.82
2022-12-01T01:03:02.211Z,11.82
2022-12-01T01:04:03.758Z,11.83
2022-12-01T01:05:05.470Z,11.82
2022-12-01T01:06:07.633Z,11.83
2022-12-01T01:07:09.089Z,11.82
2022-12-01T01:08:11.131Z,11.82
2022-12-01T01:09:12.697Z,11.82
2022-12-01T01:10:14.159Z,11.81
2022-12-01T01:11:15.660Z,11.81
2022-12-01T01:12:17.117Z,11.80
2022-12-01T01:13:18.699Z,11.77
2022-12-01T01:14:20.626Z,11.76
2022-12-01T01:15:22.081Z,11.69
2022-12-01T01:16:23.669Z,11.66
2022-12-01T01:17:25.198Z,11.63
2022-12-01T01:18:26.707Z,11.64
2022-12-01T01:19:28.202Z,11.60
2022-12-01T01:20:29.751Z,11.44
2022-12-01T01:21:31.260Z,11.36
2022-12-01T01:22:32.730Z,11.35
2022-12-01T01:23:34.363Z,11.34
2022-12-01T01:24:35.854Z,11.20
2022-12-01T01:25:37.319Z,11.26
2022-12-01T01:26:38.877Z,11.29
2022-12-01T01:27:40.341Z,11.29
2022-12-01T01:28:41.844Z,11.31
2022-12-01T01:29:43.383Z,11.12
2022-12-01T01:30:44.851Z,11.00
2022-12-01T01:31:46.337Z,11.00
2022-12-01T01:32:47.802Z,10.97
2022-12-01T01:33:49.335Z,10.91
2022-12-01T01:34:50.812Z,10.87
2022-12-01T01:35:52.256Z,10.76
2022-12-01T01:36:53.740Z,10.71
2022-12-01T01:37:55.207Z,10.70
2022-12-01T01:38:56.772Z,10.66
2022-12-01T01:39:58.289Z,10.61
2022-12-01T01:40:59.786Z,10.59
2022-12-01T01:42:01.283Z,10.58
2022-12-01T01:43:02.753Z,10.59
2022-12-01T01:44:04.359Z,10.59
2022-12-01T01:45:11.240Z,10.54
2022-12-01T01:46:16.524Z,10.70
2022-12-01T01:47:20.416Z,10.76
2022-12-01T01:48:21.866Z,10.73
2022-12-01T01:49:23.336Z,10.72
2022-12-01T01:50:25.128Z,10.75
2022-12-01T01:51:28.432Z,10.77
2022-12-01T01:52:29.939Z,10.80
2022-12-01T01:53:31.385Z,10.83
2022-12-01T01:54:36.316Z,10.85
2022-12-01T01:55:37.882Z,10.84
2022-12-01T01:56:39.373Z,10.86
2022-12-01T01:57:40.902Z,10.86
2022-12-01T01:58:42.499Z,10.86
2022-12-01T01:59:44.885Z,10.88
2022-12-01T02:00:46.410Z,10.90
2022-12-01T02:01:49.122Z,10.93
2022-12-01T02:02:50.811Z,10.93
2022-12-01T02:03:53.195Z,10.94
2022-12-01T02:04:56.912Z,10.92
2022-12-01T02:06:03.463Z,10.92
2022-12-01T02:11:53.566Z,10.97
2022-12-01T02:13:10.039Z,10.95
2022-12-01T02:14:14.936Z,10.95
2022-12-01T02:15:24.129Z,10.95
2022-12-01T02:16:31.270Z,10.97
2022-12-01T02:17:54.817Z,10.96
2022-12-01T02:19:16.187Z,10.98
2022-12-01T02:20:33.897Z,10.99
2022-12-01T02:21:47.439Z,10.92
2022-12-01T02:22:53.590Z,10.84
2022-12-01T02:23:55.395Z,10.79
2022-12-01T02:25:15.850Z,10.80
2022-12-01T02:26:23.179Z,10.81
2022-12-01T02:27:43.497Z,10.82
2022-12-01T02:29:03.478Z,10.84
2022-12-01T02:30:06.688Z,10.85
2022-12-01T02:31:15.238Z,10.84
2022-12-01T02:32:16.856Z,10.85
2022-12-01T02:33:54.160Z,10.86
2022-12-01T02:34:58.284Z,10.87
2022-12-01T02:36:15.857Z,10.88
2022-12-01T02:37:23.201Z,10.89
2022-12-01T02:38:35.701Z,10.88
2022-12-01T02:39:45.257Z,10.88
2022-12-01T02:40:47.898Z,10.88
2022-12-01T02:41:51.243Z,10.88
2022-12-01T02:43:00.041Z,10.86
2022-12-01T02:44:10.654Z,10.84
2022-12-01T02:45:13.287Z,10.85
2022-12-01T02:46:26.644Z,10.85
2022-12-01T02:47:28.163Z,10.82
2022-12-01T02:48:30.999Z,10.76
2022-12-01T02:49:33.806Z,10.76
2022-12-01T02:50:35.344Z,10.76
2022-12-01T02:51:36.810Z,10.75
2022-12-01T02:52:38.662Z,10.77
2022-12-01T02:53:40.210Z,10.77
2022-12-01T02:54:41.748Z,10.78
2022-12-01T02:55:46.975Z,10.80
2022-12-01T02:56:51.331Z,10.80
2022-12-01T02:57:52.858Z,10.81
2022-12-01T02:58:54.432Z,10.82
2022-12-01T02:59:56.025Z,10.84
2022-12-01T03:01:18.193Z,10.83
2022-12-01T03:02:24.626Z,10.79
2022-12-01T03:03:35.589Z,10.78
2022-12-01T03:04:56.884Z,10.77
2022-12-01T03:06:16.880Z,10.78
2022-12-01T03:07:37.118Z,10.79
2022-12-01T03:08:46.077Z,10.73
2022-12-01T03:10:09.764Z,10.71
2022-12-01T03:11:26.960Z,10.74
2022-12-01T03:12:39.244Z,10.74
2022-12-01T03:13:49.437Z,10.76
2022-12-01T03:14:58.377Z,10.76
2022-12-01T03:16:05.742Z,10.77
2022-12-01T03:17:11.298Z,10.79
2022-12-01T03:18:18.661Z,10.78
2022-12-01T03:19:23.073Z,10.79
2022-12-01T03:20:36.527Z,10.80
2022-12-01T03:21:38.000Z,10.79
2022-12-01T03:22:41.444Z,10.80
2022-12-01T03:23:44.798Z,10.79
2022-12-01T03:24:46.718Z,10.80
2022-12-01T03:25:48.555Z,10.80
2022-12-01T03:26:52.299Z,10.79
2022-12-01T03:28:20.280Z,10.79
2022-12-01T03:29:18.578Z,10.79
2022-12-01T03:30:20.072Z,10.79
2022-12-01T03:31:23.104Z,10.79
2022-12-01T03:32:29.661Z,10.79
2022-12-01T03:33:35.264Z,10.78
2022-12-01T03:34:39.689Z,10.77
2022-12-01T03:35:42.755Z,10.76
2022-12-01T03:36:45.774Z,10.76
2022-12-01T03:37:49.604Z,10.76
2022-12-01T03:38:52.643Z,10.77
2022-12-01T03:40:00.319Z,10.77
2022-12-01T03:41:09.547Z,10.78
2022-12-01T03:42:14.064Z,10.78
2022-12-01T03:43:16.211Z,10.79
2022-12-01T03:44:19.912Z,10.80
2022-12-01T03:45:26.672Z,10.79
2022-12-01T03:46:32.971Z,10.79
2022-12-01T03:47:37.250Z,10.80
2022-12-01T03:48:38.840Z,10.78
2022-12-01T03:49:40.334Z,10.76
2022-12-01T03:51:14.109Z,10.72
2022-12-01T03:52:38.610Z,10.72
2022-12-01T03:53:51.613Z,10.63
2022-12-01T03:54:55.931Z,10.65
2022-12-01T03:55:58.528Z,10.64
2022-12-01T03:57:00.669Z,10.64
2022-12-01T03:58:12.600Z,10.60
2022-12-01T03:59:14.095Z,10.64
2022-12-01T04:00:15.695Z,10.64
2022-12-01T04:01:17.364Z,10.64
2022-12-01T04:02:18.927Z,10.66
2022-12-01T04:03:20.694Z,10.63
2022-12-01T04:04:22.214Z,10.61
2022-12-01T04:05:25.468Z,10.56
2022-12-01T04:06:27.230Z,10.54
2022-12-01T04:07:28.824Z,10.55
2022-12-01T04:08:30.815Z,10.53
2022-12-01T04:09:32.341Z,10.55
2022-12-01T04:10:33.872Z,10.56
2022-12-01T04:11:53.842Z,10.58
2022-12-01T04:12:59.376Z,10.57
2022-12-01T04:14:00.878Z,10.56
2022-12-01T04:15:03.629Z,10.58
2022-12-01T04:16:05.279Z,10.57
2022-12-01T04:17:06.798Z,10.58
2022-12-01T04:18:08.293Z,10.58
2022-12-01T04:19:10.669Z,10.56
2022-12-01T04:20:13.126Z,10.55
2022-12-01T04:21:14.742Z,10.55
2022-12-01T04:22:16.267Z,10.54
2022-12-01T04:23:36.586Z,10.54
2022-12-01T04:24:38.116Z,10.50
2022-12-01T04:25:39.598Z,10.49
2022-12-01T04:26:42.114Z,10.48
2022-12-01T04:27:43.625Z,10.47
2022-12-01T04:28:45.192Z,10.45
2022-12-01T04:29:47.342Z,10.43
2022-12-01T04:30:49.187Z,10.44
2022-12-01T04:31:50.757Z,10.44
2022-12-01T04:32:52.320Z,10.44
2022-12-01T04:33:54.506Z,10.44
2022-12-01T04:34:56.002Z,10.46
2022-12-01T04:35:58.175Z,10.47
2022-12-01T04:36:59.710Z,10.44
2022-12-01T04:38:01.248Z,10.46
2022-12-01T04:39:02.836Z,10.43
2022-12-01T04:40:05.808Z,10.42
2022-12-01T04:41:10.589Z,10.42
2022-12-01T04:42:12.067Z,10.42
2022-12-01T04:43:13.537Z,10.40
2022-12-01T04:44:15.429Z,10.41
2022-12-01T04:45:16.909Z,10.40
2022-12-01T04:46:18.463Z,10.40
2022-12-01T04:47:19.970Z,10.42
2022-12-01T04:48:21.509Z,10.41
2022-12-01T04:49:22.967Z,10.43
2022-12-01T04:50:24.479Z,10.45
2022-12-01T04:51:26.142Z,10.46
2022-12-01T04:52:33.620Z,10.40
2022-12-01T04:53:36.666Z,10.41
2022-12-01T04:54:38.169Z,10.36
2022-12-01T04:55:39.750Z,10.35
2022-12-01T04:56:41.420Z,10.32
2022-12-01T04:57:42.915Z,10.36
2022-12-01T04:58:44.586Z,10.38
2022-12-01T04:59:46.042Z,10.39
2022-12-01T05:00:47.687Z,10.40
2022-12-01T05:01:49.569Z,10.42
2022-12-01T05:02:51.066Z,10.42
2022-12-01T05:03:52.604Z,10.43
2022-12-01T05:04:54.126Z,10.41
2022-12-01T05:06:22.174Z,10.44
2022-12-01T05:07:23.741Z,10.46
2022-12-01T05:08:25.274Z,10.47
2022-12-01T05:09:26.798Z,10.48
2022-12-01T05:10:28.279Z,10.47
2022-12-01T05:11:30.018Z,10.46
2022-12-01T05:12:31.614Z,10.46
2022-12-01T05:13:33.089Z,10.47
2022-12-01T05:14:34.600Z,10.46
2022-12-01T05:15:36.081Z,10.43
2022-12-01T05:16:37.670Z,10.43
2022-12-01T05:17:39.451Z,10.43
2022-12-01T05:18:41.212Z,10.43
2022-12-01T05:20:01.612Z,10.42
2022-12-01T05:21:04.021Z,10.41
2022-12-01T05:22:05.567Z,10.43
2022-12-01T05:23:08.266Z,10.44
2022-12-01T05:24:12.553Z,10.43
2022-12-01T05:25:14.258Z,10.45
2022-12-01T05:26:15.834Z,10.42
2022-12-01T05:27:17.367Z,10.43
2022-12-01T05:28:19.078Z,10.37
2022-12-01T05:29:20.524Z,10.35
2022-12-01T05:30:25.647Z,10.37
2022-12-01T05:31:30.023Z,10.36
2022-12-01T05:32:31.572Z,10.38
2022-12-01T05:33:33.139Z,10.35
2022-12-01T05:34:34.747Z,10.36
2022-12-01T05:35:36.224Z,10.38
2022-12-01T05:36:37.680Z,10.40
2022-12-01T05:37:39.241Z,10.41
2022-12-01T05:38:40.690Z,10.39
2022-12-01T05:39:42.217Z,10.38
2022-12-01T05:40:43.815Z,10.40
2022-12-01T05:41:45.269Z,10.39
2022-12-01T05:42:46.756Z,10.38
2022-12-01T05:43:52.194Z,10.37
2022-12-01T05:44:53.648Z,10.31
2022-12-01T05:45:56.149Z,10.31
2022-12-01T05:46:57.749Z,10.34
2022-12-01T05:47:59.787Z,10.35
2022-12-01T05:49:01.321Z,10.35
2022-12-01T05:50:05.761Z,10.35
2022-12-01T05:51:08.967Z,10.31
2022-12-01T05:52:10.487Z,10.31
2022-12-01T05:53:12.709Z,10.29
2022-12-01T05:54:14.203Z,10.30
2022-12-01T05:55:15.755Z,10.31
2022-12-01T05:56:17.550Z,10.31
2022-12-01T05:57:19.105Z,10.31
2022-12-01T05:58:21.458Z,10.33
2022-12-01T05:59:22.968Z,10.34
2022-12-01T06:00:24.427Z,10.28
2022-12-01T06:01:25.912Z,10.26
2022-12-01T06:02:27.438Z,10.28
2022-12-01T06:03:28.947Z,10.26
2022-12-01T06:04:30.470Z,10.25
2022-12-01T06:05:32.254Z,10.26
2022-12-01T06:06:33.719Z,10.24
2022-12-01T06:07:35.782Z,10.25
2022-12-01T06:08:37.390Z,10.26
2022-12-01T06:09:38.913Z,10.27
2022-12-01T06:10:40.433Z,10.28
2022-12-01T06:11:41.946Z,10.29
2022-12-01T06:12:43.388Z,10.26
2022-12-01T06:13:44.848Z,10.27
2022-12-01T06:14:46.318Z,10.26
2022-12-01T06:15:55.763Z,10.26
2022-12-01T06:16:57.263Z,10.27
2022-12-01T06:17:59.049Z,10.27
2022-12-01T06:19:00.567Z,10.26
2022-12-01T06:20:02.044Z,10.27
2022-12-01T06:21:04.064Z,10.27
2022-12-01T06:22:05.605Z,10.27
2022-12-01T06:23:07.125Z,10.28
2022-12-01T06:24:08.634Z,10.29
2022-12-01T06:25:10.157Z,10.29
2022-12-01T06:26:11.793Z,10.28
2022-12-01T06:27:13.306Z,10.26
2022-12-01T06:28:14.854Z,10.26
2022-12-01T06:29:16.343Z,10.25
2022-12-01T06:30:17.924Z,10.26
2022-12-01T06:31:19.586Z,10.26
2022-12-01T06:32:21.443Z,10.26
2022-12-01T06:33:22.975Z,10.27
2022-12-01T06:34:24.514Z,10.26
2022-12-01T06:35:26.001Z,10.27
2022-12-01T06:36:27.515Z,10.28
2022-12-01T06:37:29.008Z,10.27
2022-12-01T06:38:30.790Z,10.28
2022-12-01T06:39:32.338Z,10.29
2022-12-01T06:40:33.802Z,10.28
2022-12-01T06:41:36.337Z,10.28
2022-12-01T06:42:37.780Z,10.24
2022-12-01T06:43:39.231Z,10.24
2022-12-01T06:44:40.725Z,10.22
2022-12-01T06:45:42.255Z,10.23
2022-12-01T06:46:43.853Z,10.22
2022-12-01T06:47:47.031Z,10.21
2022-12-01T06:48:49.255Z,10.16
2022-12-01T06:49:51.042Z,10.18
2022-12-01T06:50:52.873Z,10.18
2022-12-01T06:51:54.378Z,10.16
2022-12-01T06:52:55.881Z,10.16
2022-12-01T06:54:02.137Z,10.16
2022-12-01T06:55:06.964Z,10.12
2022-12-01T06:56:08.754Z,10.12
2022-12-01T06:57:10.529Z,10.12
2022-12-01T06:58:12.196Z,10.12
2022-12-01T06:59:14.243Z,10.14
2022-12-01T07:00:16.165Z,10.13
2022-12-01T07:01:18.116Z,10.14
2022-12-01T07:02:19.772Z,10.14
2022-12-01T07:03:21.267Z,10.17
2022-12-01T07:04:22.733Z,10.11
2022-12-01T07:05:24.278Z,10.12
2022-12-01T07:06:25.777Z,10.14
2022-12-01T07:07:27.348Z,10.11
2022-12-01T07:08:29.346Z,10.05
2022-12-01T07:09:30.785Z,10.08
2022-12-01T07:10:32.247Z,10.08
2022-12-01T07:11:36.361Z,10.08
2022-12-01T07:12:37.868Z,10.03
2022-12-01T07:13:39.434Z,10.04
2022-12-01T07:14:42.427Z,10.01
2022-12-01T07:15:44.403Z,10.03
2022-12-01T07:16:45.978Z,10.03
2022-12-01T07:17:47.509Z,10.06
2022-12-01T07:18:49.210Z,10.02
2022-12-01T07:19:50.824Z,10.01
2022-12-01T07:20:52.388Z,10.02
2022-12-01T07:21:53.928Z,9.99
2022-12-01T07:22:55.405Z,9.97
2022-12-01T07:23:57.142Z,9.95
2022-12-01T07:24:58.709Z,9.93
2022-12-01T07:26:04.343Z,9.94
2022-12-01T07:27:05.831Z,9.96
2022-12-01T07:28:07.292Z,9.97
2022-12-01T07:29:09.315Z,9.98
2022-12-01T07:30:11.218Z,10.00
2022-12-01T07:31:13.753Z,10.00
2022-12-01T07:32:15.358Z,9.96
2022-12-01T07:33:16.854Z,9.98
2022-12-01T07:34:18.312Z,9.96
2022-12-01T07:35:20.288Z,9.96
2022-12-01T07:36:21.766Z,9.97
2022-12-01T07:37:23.339Z,9.97
2022-12-01T07:38:24.877Z,10.00
2022-12-01T07:39:26.338Z,9.99
2022-12-01T07:40:27.824Z,10.00
2022-12-01T07:41:29.306Z,9.99
2022-12-01T07:42:30.924Z,9.99
2022-12-01T07:43:32.700Z,9.99
2022-12-01T07:44:34.243Z,9.96
2022-12-01T07:45:35.697Z,9.95
2022-12-01T07:46:37.279Z,9.95
2022-12-01T07:47:38.810Z,9.91
2022-12-01T07:48:40.574Z,9.91
2022-12-01T07:49:42.066Z,9.91
2022-12-01T07:50:43.558Z,9.87
2022-12-01T07:51:45.002Z,9.86
2022-12-01T07:52:50.617Z,9.87
2022-12-01T07:53:52.439Z,9.88
2022-12-01T07:54:53.881Z,9.89
2022-12-01T07:55:55.462Z,9.90
2022-12-01T07:56:56.945Z,9.91
2022-12-01T07:58:01.550Z,9.90
2022-12-01T07:59:03.093Z,9.92
2022-12-01T08:00:05.030Z,9.91
2022-12-01T08:01:17.348Z,9.90
2022-12-01T08:02:19.045Z,9.90
2022-12-01T08:03:20.577Z,9.90
2022-12-01T08:04:22.037Z,9.92
2022-12-01T08:05:23.549Z,9.88
2022-12-01T08:06:25.232Z,9.84
2022-12-01T08:07:29.837Z,9.86
2022-12-01T08:08:32.389Z,9.80
2022-12-01T08:09:33.939Z,9.76
2022-12-01T08:10:35.404Z,9.77
2022-12-01T08:11:36.934Z,9.78
2022-12-01T08:12:38.431Z,9.80
2022-12-01T08:13:40.462Z,9.80
2022-12-01T08:14:41.949Z,9.80
2022-12-01T08:15:43.520Z,9.79
2022-12-01T08:16:45.044Z,9.80
2022-12-01T08:17:46.497Z,9.71
2022-12-01T08:18:48.108Z,9.73
2022-12-01T08:19:49.821Z,9.73
2022-12-01T08:20:51.628Z,9.76
2022-12-01T08:21:53.273Z,9.78
2022-12-01T08:22:54.761Z,9.78
2022-12-01T08:23:56.527Z,9.73
2022-12-01T08:24:57.998Z,9.73
2022-12-01T08:26:02.464Z,9.74
2022-12-01T08:27:04.243Z,9.71
2022-12-01T08:28:05.701Z,9.73
2022-12-01T08:29:07.184Z,9.73
2022-12-01T08:30:09.012Z,9.74
2022-12-01T08:31:11.396Z,9.74
2022-12-01T08:32:12.899Z,9.75
2022-12-01T08:33:14.411Z,9.71
2022-12-01T08:34:15.881Z,9.72
2022-12-01T08:35:17.342Z,9.70
2022-12-01T08:36:18.873Z,9.69
2022-12-01T08:37:20.338Z,9.69
2022-12-01T08:38:21.885Z,9.68
2022-12-01T08:39:23.385Z,9.66
2022-12-01T08:40:24.963Z,9.65
2022-12-01T08:41:26.627Z,9.61
2022-12-01T08:42:28.156Z,9.64
2022-12-01T08:43:56.119Z,9.66
2022-12-01T08:44:51.235Z,9.69
2022-12-01T08:45:52.772Z,9.70
2022-12-01T08:46:54.547Z,9.71
2022-12-01T08:47:58.911Z,9.68
2022-12-01T08:49:00.779Z,9.61
2022-12-01T08:50:04.889Z,9.68
2022-12-01T08:51:13.484Z,9.71
2022-12-01T08:52:14.961Z,9.68
2022-12-01T08:53:16.493Z,9.65
2022-12-01T08:54:18.006Z,9.64
2022-12-01T08:55:19.846Z,9.65
2022-12-01T08:56:22.493Z,9.64
2022-12-01T08:57:23.992Z,9.66
2022-12-01T08:58:25.549Z,9.68
2022-12-01T08:59:27.043Z,9.66
2022-12-01T09:00:29.359Z,9.63
2022-12-01T09:01:30.947Z,9.65
2022-12-01T09:02:32.533Z,9.67
2022-12-01T09:03:34.349Z,9.70
2022-12-01T09:04:35.848Z,9.74
2022-12-01T09:05:37.285Z,9.70
2022-12-01T09:06:41.937Z,9.73
2022-12-01T09:07:45.545Z,9.77
2022-12-01T09:08:47.073Z,9.77
2022-12-01T09:09:48.976Z,9.76
2022-12-01T09:10:52.122Z,9.76
2022-12-01T09:11:53.881Z,9.76
2022-12-01T09:12:55.502Z,9.77
2022-12-01T09:13:57.026Z,9.61
2022-12-01T09:14:58.606Z,9.73
2022-12-01T09:16:01.048Z,9.76
2022-12-01T09:17:02.649Z,9.74
2022-12-01T09:18:04.204Z,9.76
2022-12-01T09:19:05.677Z,9.73
2022-12-01T09:20:07.831Z,9.77
2022-12-01T09:21:11.473Z,9.67
2022-12-01T09:22:13.015Z,9.81
2022-12-01T09:23:14.484Z,9.81
2022-12-01T09:24:16.103Z,9.72
2022-12-01T09:25:17.580Z,9.75
2022-12-01T09:26:19.611Z,9.79
2022-12-01T09:27:21.110Z,9.83
2022-12-01T09:28:22.689Z,9.88
2022-12-01T09:29:24.290Z,9.88
2022-12-01T09:30:25.868Z,9.92
2022-12-01T09:31:28.034Z,9.92
2022-12-01T09:32:29.558Z,9.90
2022-12-01T09:33:31.163Z,9.87
2022-12-01T09:34:32.726Z,9.88
2022-12-01T09:35:34.202Z,9.91
2022-12-01T09:36:36.005Z,9.91
2022-12-01T09:37:37.580Z,9.87
2022-12-01T09:38:39.085Z,9.84
2022-12-01T09:39:40.550Z,9.86
2022-12-01T09:40:42.732Z,9.87
2022-12-01T09:41:45.578Z,9.86
2022-12-01T09:42:47.487Z,9.87
2022-12-01T09:43:52.948Z,9.80
2022-12-01T09:44:55.120Z,9.80
2022-12-01T09:45:58.553Z,9.83
2022-12-01T09:47:19.614Z,9.84
2022-12-01T09:48:29.105Z,9.87
2022-12-01T09:49:49.831Z,9.89
2022-12-01T09:50:51.682Z,9.92
2022-12-01T09:51:53.247Z,9.96
2022-12-01T09:52:57.224Z,9.99
2022-12-01T09:53:59.051Z,10.02
2022-12-01T09:55:00.606Z,10.04
2022-12-01T09:56:08.553Z,10.03
2022-12-01T09:57:32.028Z,10.07
2022-12-01T09:58:33.626Z,10.09
2022-12-01T09:59:35.948Z,10.04
2022-12-01T10:00:38.248Z,10.06
2022-12-01T10:01:42.177Z,10.05
2022-12-01T10:02:54.156Z,10.09
2022-12-01T10:03:56.086Z,10.09
2022-12-01T10:04:58.100Z,10.04
2022-12-01T10:06:26.837Z,9.98
2022-12-01T10:07:29.885Z,9.96
2022-12-01T10:08:32.022Z,9.98
2022-12-01T10:09:38.286Z,10.00
2022-12-01T10:10:40.607Z,10.01
2022-12-01T10:11:42.454Z,10.03
2022-12-01T10:12:44.176Z,10.03
2022-12-01T10:13:45.658Z,10.06
2022-12-01T10:14:47.485Z,10.03
2022-12-01T10:15:56.649Z,10.02
2022-12-01T10:16:58.192Z,10.01
2022-12-01T10:18:02.767Z,9.96
2022-12-01T10:19:16.287Z,9.90
2022-12-01T10:20:23.660Z,9.95
2022-12-01T10:21:44.360Z,9.97
2022-12-01T10:22:49.964Z,9.93
2022-12-01T10:23:58.252Z,9.91
2022-12-01T10:25:16.999Z,9.94
2022-12-01T10:26:36.703Z,9.99
2022-12-01T10:27:57.089Z,9.98
2022-12-01T10:29:07.818Z,9.93
2022-12-01T10:30:10.293Z,9.96
2022-12-01T10:31:21.783Z,9.98
2022-12-01T10:32:29.647Z,10.02
2022-12-01T10:33:35.260Z,9.97
2022-12-01T10:34:38.952Z,9.96
2022-12-01T10:35:41.725Z,9.94
2022-12-01T10:36:43.303Z,9.96
2022-12-01T10:37:44.970Z,9.93
2022-12-01T10:38:46.514Z,9.98
2022-12-01T10:39:49.237Z,10.02
2022-12-01T10:40:51.630Z,9.99
2022-12-01T10:41:53.138Z,10.01
2022-12-01T10:42:54.745Z,10.01
2022-12-01T10:43:59.421Z,10.05
2022-12-01T10:45:01.483Z,10.03
2022-12-01T10:46:05.743Z,10.06
2022-12-01T10:47:18.460Z,10.09
2022-12-01T10:48:20.694Z,10.13
2022-12-01T10:49:34.037Z,10.16
2022-12-01T10:50:35.884Z,10.19
2022-12-01T10:51:51.258Z,10.21
2022-12-01T10:52:52.736Z,10.25
2022-12-01T10:54:06.418Z,10.26
2022-12-01T10:55:22.926Z,10.29
2022-12-01T10:56:24.483Z,10.30
2022-12-01T10:57:26.540Z,10.32
2022-12-01T10:58:28.018Z,10.34
2022-12-01T10:59:45.802Z,10.35
2022-12-01T11:01:02.245Z,10.31
2022-12-01T11:02:04.608Z,10.31
2022-12-01T11:03:06.439Z,10.31
2022-12-01T11:04:08.987Z,10.29
2022-12-01T11:05:39.977Z,10.27
2022-12-01T11:06:41.479Z,10.26
2022-12-01T11:07:43.499Z,10.27
2022-12-01T11:08:52.640Z,10.27
2022-12-01T11:10:00.049Z,10.30
2022-12-01T11:11:01.524Z,10.25
2022-12-01T11:12:03.579Z,10.26
2022-12-01T11:13:07.392Z,10.25
2022-12-01T11:14:18.583Z,10.26
2022-12-01T11:15:21.163Z,10.25
2022-12-01T11:16:41.260Z,10.28
2022-12-01T11:17:42.931Z,10.30
2022-12-01T11:18:44.629Z,10.31
2022-12-01T11:19:46.281Z,10.34
2022-12-01T11:20:48.536Z,10.37
2022-12-01T11:21:50.930Z,10.40
2022-12-01T11:22:52.365Z,10.40
2022-12-01T11:23:54.658Z,10.40
2022-12-01T11:24:57.279Z,10.40
2022-12-01T11:26:00.209Z,10.42
2022-12-01T11:27:01.846Z,10.42
2022-12-01T11:28:03.593Z,10.39
2022-12-01T11:29:06.832Z,10.41
2022-12-01T11:30:15.822Z,10.39
2022-12-01T11:31:17.359Z,10.41
2022-12-01T11:32:20.776Z,10.38
2022-12-01T11:33:22.279Z,10.35
2022-12-01T11:34:24.996Z,10.34
2022-12-01T11:35:28.000Z,10.28
2022-12-01T11:36:39.751Z,10.28
2022-12-01T11:38:13.087Z,10.31
2022-12-01T11:39:28.314Z,10.29
2022-12-01T11:40:30.835Z,10.32
2022-12-01T11:41:33.689Z,10.34
2022-12-01T11:42:36.992Z,10.35
2022-12-01T11:43:38.473Z,10.38
2022-12-01T11:44:55.552Z,10.39
2022-12-01T11:45:57.386Z,10.40
2022-12-01T11:47:22.537Z,10.42
2022-12-01T11:48:28.064Z,10.42
2022-12-01T11:49:29.578Z,10.43
2022-12-01T11:50:32.456Z,10.45
2022-12-01T11:51:37.623Z,10.48
2022-12-01T11:52:45.831Z,10.48
2022-12-01T11:53:47.293Z,10.50
2022-12-01T11:55:05.756Z,10.50
2022-12-01T11:56:11.367Z,10.52
2022-12-01T11:58:12.612Z,10.53
2022-12-01T11:58:35.067Z,10.54
2022-12-01T11:59:36.507Z,10.54
2022-12-01T12:00:46.067Z,10.57
2022-12-01T12:01:47.509Z,10.60
2022-12-01T12:02:49.123Z,10.63
2022-12-01T12:04:10.970Z,10.67
2022-12-01T12:05:26.997Z,10.69
2022-12-01T12:06:39.860Z,10.71
2022-12-01T12:07:45.128Z,10.74
2022-12-01T12:08:49.786Z,10.74
2022-12-01T12:10:00.045Z,10.74
2022-12-01T12:11:07.782Z,10.75
2022-12-01T12:12:41.376Z,10.65
2022-12-01T12:13:52.839Z,10.63
2022-12-01T12:14:58.413Z,10.59
2022-12-01T12:16:06.609Z,10.61
2022-12-01T12:17:08.051Z,10.62
2022-12-01T12:18:28.546Z,10.63
2022-12-01T12:19:34.265Z,10.64
2022-12-01T12:20:46.861Z,10.60
2022-12-01T12:21:51.426Z,10.59
2022-12-01T12:23:00.451Z,10.59
2022-12-01T12:24:06.257Z,10.58
2022-12-01T12:25:17.437Z,10.55
2022-12-01T12:26:33.878Z,10.54
2022-12-01T12:27:53.332Z,10.54
2022-12-01T12:29:10.801Z,10.56
2022-12-01T12:30:15.222Z,10.58
2022-12-01T12:31:35.700Z,10.59
2022-12-01T12:32:37.171Z,10.55
2022-12-01T12:33:44.670Z,10.57
2022-12-01T12:34:46.100Z,10.57
2022-12-01T12:35:52.122Z,10.59
2022-12-01T12:36:56.750Z,10.61
2022-12-01T12:38:16.438Z,10.60
2022-12-01T12:39:40.751Z,10.55
2022-12-01T12:40:51.596Z,10.50
2022-12-01T12:41:54.064Z,10.48
2022-12-01T12:43:14.144Z,10.49
2022-12-01T12:44:15.676Z,10.48
2022-12-01T12:45:21.748Z,10.49
2022-12-01T12:46:23.224Z,10.51
2022-12-01T12:47:24.729Z,10.51
2022-12-01T12:48:26.160Z,10.53
2022-12-01T12:49:27.618Z,10.53
2022-12-01T12:50:47.585Z,10.53
2022-12-01T12:51:49.079Z,10.51
2022-12-01T12:52:52.006Z,10.48
2022-12-01T12:53:55.212Z,10.43
2022-12-01T12:55:00.610Z,10.45
2022-12-01T12:56:04.061Z,10.43
2022-12-01T12:57:06.418Z,10.42
2022-12-01T12:58:13.006Z,10.43
2022-12-01T12:59:16.383Z,10.47
2022-12-01T13:00:18.963Z,10.47
2022-12-01T13:01:25.215Z,10.49
2022-12-01T13:02:29.350Z,10.50
2022-12-01T13:03:40.216Z,10.53
2022-12-01T13:04:43.821Z,10.53
2022-12-01T13:05:47.575Z,10.55
2022-12-01T13:06:50.595Z,10.55
2022-12-01T13:07:57.939Z,10.57
2022-12-01T13:09:01.654Z,10.56
2022-12-01T13:10:07.123Z,10.58
2022-12-01T13:11:20.613Z,10.59
2022-12-01T13:12:27.217Z,10.54
2022-12-01T13:13:31.737Z,10.53
2022-12-01T13:14:34.887Z,10.53
2022-12-01T13:15:36.572Z,10.52
2022-12-01T13:16:40.069Z,10.51
2022-12-01T13:17:42.430Z,10.48
2022-12-01T13:18:43.974Z,10.48
2022-12-01T13:19:45.583Z,10.51
2022-12-01T13:20:47.138Z,10.54
2022-12-01T13:21:49.277Z,10.56
2022-12-01T13:22:51.168Z,10.56
2022-12-01T13:23:52.668Z,10.56
2022-12-01T13:24:54.183Z,10.51
2022-12-01T13:25:56.225Z,10.50
2022-12-01T13:26:59.606Z,10.50
2022-12-01T13:28:01.141Z,10.49
2022-12-01T13:29:03.445Z,10.50
2022-12-01T13:30:05.261Z,10.48
2022-12-01T13:31:06.825Z,10.48
2022-12-01T13:32:10.307Z,10.44
2022-12-01T13:33:13.790Z,10.46
2022-12-01T13:34:33.975Z,10.47
2022-12-01T13:35:38.237Z,10.40
2022-12-01T13:36:46.805Z,10.40
2022-12-01T13:37:48.805Z,10.34
2022-12-01T13:38:56.481Z,10.31
2022-12-01T13:40:06.861Z,10.32
2022-12-01T13:41:11.142Z,10.33
2022-12-01T13:42:18.939Z,10.32
2022-12-01T13:43:20.947Z,10.29
2022-12-01T13:44:26.246Z,10.28
2022-12-01T13:45:34.129Z,10.28
2022-12-01T13:46:41.729Z,10.28
2022-12-01T13:47:46.340Z,10.29
2022-12-01T13:48:47.928Z,10.32
2022-12-01T13:49:50.235Z,10.35
2022-12-01T13:50:55.702Z,10.40
2022-12-01T13:52:15.939Z,10.41
2022-12-01T13:53:17.429Z,10.45
2022-12-01T13:54:28.281Z,10.46
2022-12-01T13:55:29.910Z,10.49
2022-12-01T13:56:39.338Z,10.47
2022-12-01T13:57:47.887Z,10.46
2022-12-01T13:58:50.338Z,10.45